sensor_id;sensor_type;location;lat;lon;timestamp;P1;durP1;ratioP1;P2;durP2;ratioP2
12880;SDS011;6508;53.786;9.996;2023-05-07T00:01:59;7.93;;;7.15;;
12880;SDS011;6508;53.786;9.996;2023-05-07T00:04:28;8.63;;;7.85;;
12880;SDS011;6508;53.786;9.996;2023-05-07T00:07:02;8.85;;;7.95;;
12880;SDS011;6508;53.786;9.996;2023-05-07T00:09:30;9.00;;;8.10;;
12880;SDS011;6508;53.786;9.996;2023-05-07T00:11:58;9.13;;;8.23;;
12880;SDS011;6508;53.786;9.996;2023-05-07T00:14:27;9.57;;;8.05;;
12880;SDS011;6508;53.786;9.996;2023-05-07T00:16:55;11.48;;;8.63;;
12880;SDS011;6508;53.786;9.996;2023-05-07T00:19:23;10.63;;;8.50;;
12880;SDS011;6508;53.786;9.996;2023-05-07T00:21:52;9.95;;;8.55;;
12880;SDS011;6508;53.786;9.996;2023-05-07T00:24:20;10.88;;;8.68;;
12880;SDS011;6508;53.786;9.996;2023-05-07T00:26:49;12.10;;;8.82;;
12880;SDS011;6508;53.786;9.996;2023-05-07T00:29:16;10.15;;;8.52;;
12880;SDS011;6508;53.786;9.996;2023-05-07T00:31:44;11.45;;;8.98;;
12880;SDS011;6508;53.786;9.996;2023-05-07T00:34:12;10.13;;;9.02;;
12880;SDS011;6508;53.786;9.996;2023-05-07T00:36:40;11.60;;;9.10;;
12880;SDS011;6508;53.786;9.996;2023-05-07T00:39:09;11.00;;;8.68;;
12880;SDS011;6508;53.786;9.996;2023-05-07T00:41:37;9.07;;;8.18;;
12880;SDS011;6508;53.786;9.996;2023-05-07T00:44:05;10.45;;;8.38;;
12880;SDS011;6508;53.786;9.996;2023-05-07T00:46:33;9.65;;;8.73;;
12880;SDS011;6508;53.786;9.996;2023-05-07T00:49:01;8.98;;;8.15;;
12880;SDS011;6508;53.786;9.996;2023-05-07T00:51:30;10.48;;;9.27;;
12880;SDS011;6508;53.786;9.996;2023-05-07T00:53:59;12.38;;;9.20;;
12880;SDS011;6508;53.786;9.996;2023-05-07T00:56:28;10.32;;;8.80;;
12880;SDS011;6508;53.786;9.996;2023-05-07T00:58:56;9.32;;;8.45;;
12880;SDS011;6508;53.786;9.996;2023-05-07T01:01:24;10.73;;;9.07;;
12880;SDS011;6508;53.786;9.996;2023-05-07T01:03:53;12.20;;;9.02;;
12880;SDS011;6508;53.786;9.996;2023-05-07T01:06:22;10.68;;;8.63;;
12880;SDS011;6508;53.786;9.996;2023-05-07T01:08:51;11.18;;;9.10;;
12880;SDS011;6508;53.786;9.996;2023-05-07T01:11:22;11.70;;;8.93;;
12880;SDS011;6508;53.786;9.996;2023-05-07T01:13:53;9.10;;;8.20;;
12880;SDS011;6508;53.786;9.996;2023-05-07T01:16:21;10.15;;;8.98;;
12880;SDS011;6508;53.786;9.996;2023-05-07T01:18:49;13.88;;;9.60;;
12880;SDS011;6508;53.786;9.996;2023-05-07T01:21:17;11.32;;;9.45;;
12880;SDS011;6508;53.786;9.996;2023-05-07T01:23:47;10.70;;;8.80;;
12880;SDS011;6508;53.786;9.996;2023-05-07T01:26:15;10.15;;;8.65;;
12880;SDS011;6508;53.786;9.996;2023-05-07T01:28:46;11.80;;;9.30;;
12880;SDS011;6508;53.786;9.996;2023-05-07T01:31:15;10.68;;;9.30;;
12880;SDS011;6508;53.786;9.996;2023-05-07T01:33:44;9.70;;;8.70;;
12880;SDS011;6508;53.786;9.996;2023-05-07T01:36:12;10.60;;;9.02;;
12880;SDS011;6508;53.786;9.996;2023-05-07T01:38:40;9.77;;;8.77;;
12880;SDS011;6508;53.786;9.996;2023-05-07T01:41:10;9.80;;;8.80;;
12880;SDS011;6508;53.786;9.996;2023-05-07T01:43:40;11.35;;;8.48;;
12880;SDS011;6508;53.786;9.996;2023-05-07T01:46:08;9.40;;;8.50;;
12880;SDS011;6508;53.786;9.996;2023-05-07T01:48:37;11.82;;;9.07;;
12880;SDS011;6508;53.786;9.996;2023-05-07T01:51:04;11.18;;;9.38;;
12880;SDS011;6508;53.786;9.996;2023-05-07T01:53:35;10.07;;;9.07;;
12880;SDS011;6508;53.786;9.996;2023-05-07T01:56:04;11.80;;;8.98;;
12880;SDS011;6508;53.786;9.996;2023-05-07T01:58:34;11.32;;;9.55;;
12880;SDS011;6508;53.786;9.996;2023-05-07T02:01:03;10.73;;;9.65;;
12880;SDS011;6508;53.786;9.996;2023-05-07T02:03:31;12.88;;;9.27;;
12880;SDS011;6508;53.786;9.996;2023-05-07T02:06:07;12.30;;;9.80;;
12880;SDS011;6508;53.786;9.996;2023-05-07T02:08:38;10.05;;;8.85;;
12880;SDS011;6508;53.786;9.996;2023-05-07T02:11:07;12.50;;;10.20;;
12880;SDS011;6508;53.786;9.996;2023-05-07T02:13:36;14.45;;;10.88;;
12880;SDS011;6508;53.786;9.996;2023-05-07T02:16:05;10.70;;;9.50;;
12880;SDS011;6508;53.786;9.996;2023-05-07T02:18:33;12.10;;;10.32;;
12880;SDS011;6508;53.786;9.996;2023-05-07T02:21:02;12.48;;;9.98;;
12880;SDS011;6508;53.786;9.996;2023-05-07T02:23:30;13.93;;;9.48;;
12880;SDS011;6508;53.786;9.996;2023-05-07T02:25:57;12.70;;;9.52;;
12880;SDS011;6508;53.786;9.996;2023-05-07T02:28:26;12.00;;;9.75;;
12880;SDS011;6508;53.786;9.996;2023-05-07T02:31:03;12.18;;;9.73;;
12880;SDS011;6508;53.786;9.996;2023-05-07T02:33:33;9.85;;;8.70;;
12880;SDS011;6508;53.786;9.996;2023-05-07T02:36:06;10.98;;;9.65;;
12880;SDS011;6508;53.786;9.996;2023-05-07T02:38:38;12.88;;;9.70;;
12880;SDS011;6508;53.786;9.996;2023-05-07T02:41:06;10.40;;;9.02;;
12880;SDS011;6508;53.786;9.996;2023-05-07T02:43:34;10.13;;;9.13;;
12880;SDS011;6508;53.786;9.996;2023-05-07T02:46:04;13.05;;;9.40;;
12880;SDS011;6508;53.786;9.996;2023-05-07T02:48:36;10.77;;;9.68;;
12880;SDS011;6508;53.786;9.996;2023-05-07T02:51:04;11.50;;;9.10;;
12880;SDS011;6508;53.786;9.996;2023-05-07T02:53:34;11.07;;;9.43;;
12880;SDS011;6508;53.786;9.996;2023-05-07T02:56:02;12.10;;;10.45;;
12880;SDS011;6508;53.786;9.996;2023-05-07T02:58:30;12.65;;;10.20;;
12880;SDS011;6508;53.786;9.996;2023-05-07T03:01:00;11.57;;;9.95;;
12880;SDS011;6508;53.786;9.996;2023-05-07T03:03:35;11.82;;;10.25;;
12880;SDS011;6508;53.786;9.996;2023-05-07T03:06:03;13.88;;;10.05;;
12880;SDS011;6508;53.786;9.996;2023-05-07T03:08:31;11.75;;;10.27;;
12880;SDS011;6508;53.786;9.996;2023-05-07T03:10:58;11.15;;;9.90;;
12880;SDS011;6508;53.786;9.996;2023-05-07T03:13:26;13.80;;;10.27;;
12880;SDS011;6508;53.786;9.996;2023-05-07T03:15:55;11.73;;;9.68;;
12880;SDS011;6508;53.786;9.996;2023-05-07T03:18:22;10.30;;;9.20;;
12880;SDS011;6508;53.786;9.996;2023-05-07T03:20:52;10.57;;;9.48;;
12880;SDS011;6508;53.786;9.996;2023-05-07T03:23:20;11.77;;;9.65;;
12880;SDS011;6508;53.786;9.996;2023-05-07T03:25:50;10.63;;;9.30;;
12880;SDS011;6508;53.786;9.996;2023-05-07T03:28:18;13.13;;;9.65;;
12880;SDS011;6508;53.786;9.996;2023-05-07T03:30:52;10.73;;;9.63;;
12880;SDS011;6508;53.786;9.996;2023-05-07T03:33:21;9.75;;;8.57;;
12880;SDS011;6508;53.786;9.996;2023-05-07T03:35:49;10.60;;;9.20;;
12880;SDS011;6508;53.786;9.996;2023-05-07T03:38:22;9.82;;;8.70;;
12880;SDS011;6508;53.786;9.996;2023-05-07T03:40:50;12.55;;;9.23;;
12880;SDS011;6508;53.786;9.996;2023-05-07T03:43:18;9.68;;;8.00;;
12880;SDS011;6508;53.786;9.996;2023-05-07T03:45:51;9.98;;;8.98;;
12880;SDS011;6508;53.786;9.996;2023-05-07T03:48:23;8.73;;;7.93;;
12880;SDS011;6508;53.786;9.996;2023-05-07T03:50:54;9.02;;;7.75;;
12880;SDS011;6508;53.786;9.996;2023-05-07T03:53:23;10.18;;;8.55;;
12880;SDS011;6508;53.786;9.996;2023-05-07T03:55:51;8.57;;;7.70;;
12880;SDS011;6508;53.786;9.996;2023-05-07T03:58:20;7.80;;;6.97;;
12880;SDS011;6508;53.786;9.996;2023-05-07T04:00:48;8.95;;;7.45;;
12880;SDS011;6508;53.786;9.996;2023-05-07T04:03:22;10.68;;;7.72;;
12880;SDS011;6508;53.786;9.996;2023-05-07T04:05:51;8.88;;;7.88;;
12880;SDS011;6508;53.786;9.996;2023-05-07T04:08:20;8.80;;;7.85;;
12880;SDS011;6508;53.786;9.996;2023-05-07T04:10:55;9.15;;;8.25;;
12880;SDS011;6508;53.786;9.996;2023-05-07T04:13:25;9.15;;;7.97;;
12880;SDS011;6508;53.786;9.996;2023-05-07T04:15:54;9.68;;;7.78;;
12880;SDS011;6508;53.786;9.996;2023-05-07T04:18:23;9.00;;;7.05;;
12880;SDS011;6508;53.786;9.996;2023-05-07T04:20:51;9.48;;;8.25;;
12880;SDS011;6508;53.786;9.996;2023-05-07T04:23:20;9.07;;;7.68;;
12880;SDS011;6508;53.786;9.996;2023-05-07T04:25:48;8.13;;;7.43;;
12880;SDS011;6508;53.786;9.996;2023-05-07T04:28:29;8.10;;;7.30;;
12880;SDS011;6508;53.786;9.996;2023-05-07T04:30:57;9.50;;;8.13;;
12880;SDS011;6508;53.786;9.996;2023-05-07T04:33:25;8.68;;;7.85;;
12880;SDS011;6508;53.786;9.996;2023-05-07T04:35:54;8.73;;;7.85;;
12880;SDS011;6508;53.786;9.996;2023-05-07T04:38:23;8.70;;;7.80;;
12880;SDS011;6508;53.786;9.996;2023-05-07T04:40:53;8.55;;;7.75;;
12880;SDS011;6508;53.786;9.996;2023-05-07T04:43:23;8.73;;;7.93;;
12880;SDS011;6508;53.786;9.996;2023-05-07T04:45:53;9.35;;;8.10;;
12880;SDS011;6508;53.786;9.996;2023-05-07T04:48:23;10.48;;;8.13;;
12880;SDS011;6508;53.786;9.996;2023-05-07T04:50:52;8.60;;;7.70;;
12880;SDS011;6508;53.786;9.996;2023-05-07T04:53:20;8.85;;;7.95;;
12880;SDS011;6508;53.786;9.996;2023-05-07T04:55:54;9.02;;;7.78;;
12880;SDS011;6508;53.786;9.996;2023-05-07T04:58:24;9.43;;;8.45;;
12880;SDS011;6508;53.786;9.996;2023-05-07T05:00:53;9.07;;;8.07;;
12880;SDS011;6508;53.786;9.996;2023-05-07T05:03:22;10.07;;;8.20;;
12880;SDS011;6508;53.786;9.996;2023-05-07T05:05:51;9.07;;;7.85;;
12880;SDS011;6508;53.786;9.996;2023-05-07T05:08:21;9.60;;;8.60;;
12880;SDS011;6508;53.786;9.996;2023-05-07T05:10:49;9.18;;;8.20;;
12880;SDS011;6508;53.786;9.996;2023-05-07T05:13:17;9.70;;;8.70;;
12880;SDS011;6508;53.786;9.996;2023-05-07T05:15:45;11.60;;;10.27;;
12880;SDS011;6508;53.786;9.996;2023-05-07T05:18:16;10.07;;;9.07;;
12880;SDS011;6508;53.786;9.996;2023-05-07T05:20:44;9.52;;;8.57;;
12880;SDS011;6508;53.786;9.996;2023-05-07T05:23:12;9.63;;;8.63;;
12880;SDS011;6508;53.786;9.996;2023-05-07T05:25:40;9.98;;;8.38;;
12880;SDS011;6508;53.786;9.996;2023-05-07T05:28:10;9.63;;;8.27;;
12880;SDS011;6508;53.786;9.996;2023-05-07T05:30:38;8.40;;;7.60;;
12880;SDS011;6508;53.786;9.996;2023-05-07T05:33:07;10.18;;;8.77;;
12880;SDS011;6508;53.786;9.996;2023-05-07T05:35:36;10.50;;;8.30;;
12880;SDS011;6508;53.786;9.996;2023-05-07T05:38:10;8.93;;;8.10;;
12880;SDS011;6508;53.786;9.996;2023-05-07T05:40:39;8.98;;;8.02;;
12880;SDS011;6508;53.786;9.996;2023-05-07T05:43:06;8.63;;;7.72;;
12880;SDS011;6508;53.786;9.996;2023-05-07T05:45:36;10.38;;;8.30;;
12880;SDS011;6508;53.786;9.996;2023-05-07T05:48:05;9.40;;;7.85;;
12880;SDS011;6508;53.786;9.996;2023-05-07T05:50:33;8.00;;;7.30;;
12880;SDS011;6508;53.786;9.996;2023-05-07T05:53:05;10.63;;;7.78;;
12880;SDS011;6508;53.786;9.996;2023-05-07T05:55:32;10.88;;;9.02;;
12880;SDS011;6508;53.786;9.996;2023-05-07T05:58:01;8.52;;;7.72;;
12880;SDS011;6508;53.786;9.996;2023-05-07T06:00:32;7.95;;;6.85;;
12880;SDS011;6508;53.786;9.996;2023-05-07T06:03:03;8.02;;;7.28;;
12880;SDS011;6508;53.786;9.996;2023-05-07T06:05:31;7.18;;;6.53;;
12880;SDS011;6508;53.786;9.996;2023-05-07T06:07:59;8.30;;;7.50;;
12880;SDS011;6508;53.786;9.996;2023-05-07T06:10:32;7.65;;;6.95;;
12880;SDS011;6508;53.786;9.996;2023-05-07T06:13:00;7.35;;;6.75;;
12880;SDS011;6508;53.786;9.996;2023-05-07T06:15:29;6.88;;;6.32;;
12880;SDS011;6508;53.786;9.996;2023-05-07T06:18:02;7.90;;;6.88;;
12880;SDS011;6508;53.786;9.996;2023-05-07T06:20:30;7.40;;;6.70;;
12880;SDS011;6508;53.786;9.996;2023-05-07T06:23:01;7.18;;;6.47;;
12880;SDS011;6508;53.786;9.996;2023-05-07T06:25:33;8.35;;;7.43;;
12880;SDS011;6508;53.786;9.996;2023-05-07T06:28:01;8.32;;;7.53;;
12880;SDS011;6508;53.786;9.996;2023-05-07T06:30:30;7.13;;;6.53;;
12880;SDS011;6508;53.786;9.996;2023-05-07T06:32:59;7.30;;;6.70;;
12880;SDS011;6508;53.786;9.996;2023-05-07T06:35:27;7.30;;;6.70;;
12880;SDS011;6508;53.786;9.996;2023-05-07T06:37:55;7.03;;;6.43;;
12880;SDS011;6508;53.786;9.996;2023-05-07T06:40:26;8.32;;;6.68;;
12880;SDS011;6508;53.786;9.996;2023-05-07T06:42:56;7.15;;;6.55;;
12880;SDS011;6508;53.786;9.996;2023-05-07T06:45:46;7.03;;;6.47;;
12880;SDS011;6508;53.786;9.996;2023-05-07T06:48:14;6.70;;;6.20;;
12880;SDS011;6508;53.786;9.996;2023-05-07T06:50:49;6.97;;;6.43;;
12880;SDS011;6508;53.786;9.996;2023-05-07T06:53:18;6.43;;;5.85;;
12880;SDS011;6508;53.786;9.996;2023-05-07T06:55:45;6.55;;;6.00;;
12880;SDS011;6508;53.786;9.996;2023-05-07T06:58:16;6.45;;;5.85;;
12880;SDS011;6508;53.786;9.996;2023-05-07T07:00:44;6.20;;;5.70;;
12880;SDS011;6508;53.786;9.996;2023-05-07T07:03:13;6.28;;;5.78;;
12880;SDS011;6508;53.786;9.996;2023-05-07T07:05:41;5.70;;;5.30;;
12880;SDS011;6508;53.786;9.996;2023-05-07T07:08:09;6.75;;;6.13;;
12880;SDS011;6508;53.786;9.996;2023-05-07T07:10:38;6.30;;;5.88;;
12880;SDS011;6508;53.786;9.996;2023-05-07T07:13:06;6.30;;;5.80;;
12880;SDS011;6508;53.786;9.996;2023-05-07T07:15:35;6.00;;;5.60;;
12880;SDS011;6508;53.786;9.996;2023-05-07T07:18:04;5.70;;;5.10;;
12880;SDS011;6508;53.786;9.996;2023-05-07T07:20:32;6.43;;;5.82;;
12880;SDS011;6508;53.786;9.996;2023-05-07T07:23:00;6.40;;;5.90;;
12880;SDS011;6508;53.786;9.996;2023-05-07T07:25:27;6.55;;;6.05;;
12880;SDS011;6508;53.786;9.996;2023-05-07T07:27:56;6.47;;;5.82;;
12880;SDS011;6508;53.786;9.996;2023-05-07T07:30:26;6.00;;;5.60;;
12880;SDS011;6508;53.786;9.996;2023-05-07T07:32:55;6.35;;;5.95;;
12880;SDS011;6508;53.786;9.996;2023-05-07T07:35:31;6.55;;;6.00;;
12880;SDS011;6508;53.786;9.996;2023-05-07T07:37:59;6.65;;;6.10;;
12880;SDS011;6508;53.786;9.996;2023-05-07T07:40:28;5.82;;;5.43;;
12880;SDS011;6508;53.786;9.996;2023-05-07T07:42:57;6.20;;;5.72;;
12880;SDS011;6508;53.786;9.996;2023-05-07T07:45:25;6.35;;;5.85;;
12880;SDS011;6508;53.786;9.996;2023-05-07T07:47:52;9.45;;;8.55;;
12880;SDS011;6508;53.786;9.996;2023-05-07T07:50:22;7.65;;;6.95;;
12880;SDS011;6508;53.786;9.996;2023-05-07T07:53:10;6.55;;;6.03;;
12880;SDS011;6508;53.786;9.996;2023-05-07T07:55:38;6.45;;;5.93;;
12880;SDS011;6508;53.786;9.996;2023-05-07T07:58:06;6.80;;;6.30;;
12880;SDS011;6508;53.786;9.996;2023-05-07T08:00:34;6.13;;;5.70;;
12880;SDS011;6508;53.786;9.996;2023-05-07T08:03:02;6.85;;;5.40;;
12880;SDS011;6508;53.786;9.996;2023-05-07T08:05:37;5.82;;;5.20;;
12880;SDS011;6508;53.786;9.996;2023-05-07T08:08:06;5.50;;;5.10;;
12880;SDS011;6508;53.786;9.996;2023-05-07T08:10:37;5.53;;;5.13;;
12880;SDS011;6508;53.786;9.996;2023-05-07T08:13:13;5.95;;;5.45;;
12880;SDS011;6508;53.786;9.996;2023-05-07T08:15:41;5.93;;;5.38;;
12880;SDS011;6508;53.786;9.996;2023-05-07T08:18:10;6.10;;;5.70;;
12880;SDS011;6508;53.786;9.996;2023-05-07T08:20:40;5.68;;;5.38;;
12880;SDS011;6508;53.786;9.996;2023-05-07T08:23:13;5.80;;;5.40;;
12880;SDS011;6508;53.786;9.996;2023-05-07T08:25:42;6.05;;;5.55;;
12880;SDS011;6508;53.786;9.996;2023-05-07T08:28:10;5.78;;;5.35;;
12880;SDS011;6508;53.786;9.996;2023-05-07T08:30:39;5.47;;;5.07;;
12880;SDS011;6508;53.786;9.996;2023-05-07T08:33:08;6.22;;;5.82;;
12880;SDS011;6508;53.786;9.996;2023-05-07T08:35:37;5.95;;;5.55;;
12880;SDS011;6508;53.786;9.996;2023-05-07T08:38:08;5.75;;;5.35;;
12880;SDS011;6508;53.786;9.996;2023-05-07T08:40:36;6.40;;;5.90;;
12880;SDS011;6508;53.786;9.996;2023-05-07T08:43:10;7.07;;;6.47;;
12880;SDS011;6508;53.786;9.996;2023-05-07T08:45:42;6.43;;;5.93;;
12880;SDS011;6508;53.786;9.996;2023-05-07T08:48:14;6.40;;;6.00;;
12880;SDS011;6508;53.786;9.996;2023-05-07T08:50:47;8.13;;;7.43;;
12880;SDS011;6508;53.786;9.996;2023-05-07T08:53:17;6.75;;;6.13;;
12880;SDS011;6508;53.786;9.996;2023-05-07T08:55:45;7.53;;;6.88;;
12880;SDS011;6508;53.786;9.996;2023-05-07T08:58:14;6.32;;;5.90;;
12880;SDS011;6508;53.786;9.996;2023-05-07T09:00:42;5.82;;;5.43;;
12880;SDS011;6508;53.786;9.996;2023-05-07T09:03:12;6.50;;;6.00;;
12880;SDS011;6508;53.786;9.996;2023-05-07T09:05:43;5.97;;;5.47;;
12880;SDS011;6508;53.786;9.996;2023-05-07T09:08:14;6.20;;;5.80;;
12880;SDS011;6508;53.786;9.996;2023-05-07T09:10:46;4.97;;;4.65;;
12880;SDS011;6508;53.786;9.996;2023-05-07T09:13:17;6.05;;;5.57;;
12880;SDS011;6508;53.786;9.996;2023-05-07T09:15:46;5.05;;;4.75;;
12880;SDS011;6508;53.786;9.996;2023-05-07T09:18:15;5.15;;;4.88;;
12880;SDS011;6508;53.786;9.996;2023-05-07T09:20:46;5.10;;;4.70;;
12880;SDS011;6508;53.786;9.996;2023-05-07T09:23:15;4.93;;;4.47;;
12880;SDS011;6508;53.786;9.996;2023-05-07T09:25:43;5.13;;;4.72;;
12880;SDS011;6508;53.786;9.996;2023-05-07T09:28:22;5.65;;;5.18;;
12880;SDS011;6508;53.786;9.996;2023-05-07T09:30:50;5.15;;;4.85;;
12880;SDS011;6508;53.786;9.996;2023-05-07T09:33:19;5.50;;;5.20;;
12880;SDS011;6508;53.786;9.996;2023-05-07T09:35:50;5.43;;;5.13;;
12880;SDS011;6508;53.786;9.996;2023-05-07T09:38:20;5.80;;;5.40;;
12880;SDS011;6508;53.786;9.996;2023-05-07T09:41:01;5.65;;;5.25;;
12880;SDS011;6508;53.786;9.996;2023-05-07T09:43:33;5.63;;;5.32;;
12880;SDS011;6508;53.786;9.996;2023-05-07T09:46:05;5.22;;;4.93;;
12880;SDS011;6508;53.786;9.996;2023-05-07T09:48:38;5.90;;;5.50;;
12880;SDS011;6508;53.786;9.996;2023-05-07T09:51:10;5.93;;;5.53;;
12880;SDS011;6508;53.786;9.996;2023-05-07T09:53:43;7.13;;;6.47;;
12880;SDS011;6508;53.786;9.996;2023-05-07T09:56:14;7.28;;;6.78;;
12880;SDS011;6508;53.786;9.996;2023-05-07T09:58:44;7.40;;;6.70;;
12880;SDS011;6508;53.786;9.996;2023-05-07T10:01:13;5.75;;;5.35;;
12880;SDS011;6508;53.786;9.996;2023-05-07T10:03:42;5.80;;;5.40;;
12880;SDS011;6508;53.786;9.996;2023-05-07T10:06:11;5.55;;;5.25;;
12880;SDS011;6508;53.786;9.996;2023-05-07T10:08:40;4.85;;;4.55;;
12880;SDS011;6508;53.786;9.996;2023-05-07T10:11:08;5.63;;;5.15;;
12880;SDS011;6508;53.786;9.996;2023-05-07T10:13:37;4.45;;;4.25;;
12880;SDS011;6508;53.786;9.996;2023-05-07T10:16:09;5.07;;;4.78;;
12880;SDS011;6508;53.786;9.996;2023-05-07T10:18:42;4.65;;;4.35;;
12880;SDS011;6508;53.786;9.996;2023-05-07T10:21:16;4.50;;;4.30;;
12880;SDS011;6508;53.786;9.996;2023-05-07T10:23:47;4.80;;;4.50;;
12880;SDS011;6508;53.786;9.996;2023-05-07T10:26:18;4.35;;;4.05;;
12880;SDS011;6508;53.786;9.996;2023-05-07T10:28:49;4.03;;;3.83;;
12880;SDS011;6508;53.786;9.996;2023-05-07T10:31:26;4.13;;;3.92;;
12880;SDS011;6508;53.786;9.996;2023-05-07T10:34:07;4.03;;;3.83;;
12880;SDS011;6508;53.786;9.996;2023-05-07T10:36:35;4.45;;;4.15;;
12880;SDS011;6508;53.786;9.996;2023-05-07T10:39:05;4.63;;;4.32;;
12880;SDS011;6508;53.786;9.996;2023-05-07T10:41:34;4.57;;;4.07;;
12880;SDS011;6508;53.786;9.996;2023-05-07T10:44:03;4.47;;;4.15;;
12880;SDS011;6508;53.786;9.996;2023-05-07T10:46:35;3.97;;;3.78;;
12880;SDS011;6508;53.786;9.996;2023-05-07T10:49:16;4.15;;;3.95;;
12880;SDS011;6508;53.786;9.996;2023-05-07T10:52:04;4.25;;;4.05;;
12880;SDS011;6508;53.786;9.996;2023-05-07T10:54:39;4.28;;;3.97;;
12880;SDS011;6508;53.786;9.996;2023-05-07T11:03:14;4.22;;;3.97;;
12880;SDS011;6508;53.786;9.996;2023-05-07T11:06:09;4.05;;;3.83;;
12880;SDS011;6508;53.786;9.996;2023-05-07T11:08:52;4.07;;;3.88;;
12880;SDS011;6508;53.786;9.996;2023-05-07T11:17:20;3.63;;;3.42;;
12880;SDS011;6508;53.786;9.996;2023-05-07T11:19:57;4.20;;;4.00;;
12880;SDS011;6508;53.786;9.996;2023-05-07T11:22:35;3.50;;;3.30;;
12880;SDS011;6508;53.786;9.996;2023-05-07T11:25:14;3.97;;;3.78;;
12880;SDS011;6508;53.786;9.996;2023-05-07T11:27:48;3.83;;;3.63;;
12880;SDS011;6508;53.786;9.996;2023-05-07T11:30:16;4.05;;;3.75;;
12880;SDS011;6508;53.786;9.996;2023-05-07T11:32:46;4.00;;;3.80;;
12880;SDS011;6508;53.786;9.996;2023-05-07T11:35:18;3.58;;;3.47;;
12880;SDS011;6508;53.786;9.996;2023-05-07T11:37:48;4.30;;;4.00;;
12880;SDS011;6508;53.786;9.996;2023-05-07T11:40:16;4.32;;;4.03;;
12880;SDS011;6508;53.786;9.996;2023-05-07T11:42:44;4.18;;;3.90;;
12880;SDS011;6508;53.786;9.996;2023-05-07T11:45:12;4.28;;;3.97;;
12880;SDS011;6508;53.786;9.996;2023-05-07T11:47:50;3.97;;;3.78;;
12880;SDS011;6508;53.786;9.996;2023-05-07T11:50:20;3.85;;;3.65;;
12880;SDS011;6508;53.786;9.996;2023-05-07T11:52:50;3.83;;;3.63;;
12880;SDS011;6508;53.786;9.996;2023-05-07T11:55:19;3.83;;;3.63;;
12880;SDS011;6508;53.786;9.996;2023-05-07T11:57:48;3.83;;;3.63;;
12880;SDS011;6508;53.786;9.996;2023-05-07T12:00:16;3.83;;;3.63;;
12880;SDS011;6508;53.786;9.996;2023-05-07T12:02:44;3.92;;;3.63;;
12880;SDS011;6508;53.786;9.996;2023-05-07T12:05:13;3.92;;;3.72;;
12880;SDS011;6508;53.786;9.996;2023-05-07T12:07:42;3.30;;;3.20;;
12880;SDS011;6508;53.786;9.996;2023-05-07T12:10:11;3.65;;;3.53;;
12880;SDS011;6508;53.786;9.996;2023-05-07T12:12:40;3.90;;;3.70;;
12880;SDS011;6508;53.786;9.996;2023-05-07T12:15:08;3.53;;;3.42;;
12880;SDS011;6508;53.786;9.996;2023-05-07T12:17:37;4.40;;;3.95;;
12880;SDS011;6508;53.786;9.996;2023-05-07T12:20:06;3.60;;;3.40;;
12880;SDS011;6508;53.786;9.996;2023-05-07T12:22:35;3.83;;;3.72;;
12880;SDS011;6508;53.786;9.996;2023-05-07T12:25:04;3.80;;;3.70;;
12880;SDS011;6508;53.786;9.996;2023-05-07T12:27:36;3.53;;;3.42;;
12880;SDS011;6508;53.786;9.996;2023-05-07T12:30:04;3.70;;;3.50;;
12880;SDS011;6508;53.786;9.996;2023-05-07T12:32:33;4.90;;;4.60;;
12880;SDS011;6508;53.786;9.996;2023-05-07T12:35:03;4.25;;;3.97;;
12880;SDS011;6508;53.786;9.996;2023-05-07T12:37:33;3.60;;;3.50;;
12880;SDS011;6508;53.786;9.996;2023-05-07T12:40:04;3.70;;;3.53;;
12880;SDS011;6508;53.786;9.996;2023-05-07T12:42:35;3.58;;;3.47;;
12880;SDS011;6508;53.786;9.996;2023-05-07T12:45:10;3.90;;;3.70;;
12880;SDS011;6508;53.786;9.996;2023-05-07T12:47:39;3.40;;;3.30;;
12880;SDS011;6508;53.786;9.996;2023-05-07T12:50:07;4.05;;;3.88;;
12880;SDS011;6508;53.786;9.996;2023-05-07T12:52:35;4.47;;;4.28;;
12880;SDS011;6508;53.786;9.996;2023-05-07T12:55:05;3.72;;;3.63;;
12880;SDS011;6508;53.786;9.996;2023-05-07T12:57:38;4.00;;;3.80;;
12880;SDS011;6508;53.786;9.996;2023-05-07T13:00:07;4.13;;;3.95;;
12880;SDS011;6508;53.786;9.996;2023-05-07T13:02:37;4.55;;;4.25;;
12880;SDS011;6508;53.786;9.996;2023-05-07T13:05:06;3.78;;;3.60;;
12880;SDS011;6508;53.786;9.996;2023-05-07T13:07:35;3.70;;;3.60;;
12880;SDS011;6508;53.786;9.996;2023-05-07T13:10:06;3.55;;;3.45;;
12880;SDS011;6508;53.786;9.996;2023-05-07T13:12:35;3.58;;;3.47;;
12880;SDS011;6508;53.786;9.996;2023-05-07T13:15:03;3.42;;;3.33;;
12880;SDS011;6508;53.786;9.996;2023-05-07T13:17:32;3.50;;;3.40;;
12880;SDS011;6508;53.786;9.996;2023-05-07T13:20:00;3.15;;;2.95;;
12880;SDS011;6508;53.786;9.996;2023-05-07T13:22:28;3.13;;;2.92;;
12880;SDS011;6508;53.786;9.996;2023-05-07T13:24:56;3.35;;;3.25;;
12880;SDS011;6508;53.786;9.996;2023-05-07T13:27:25;3.22;;;3.13;;
12880;SDS011;6508;53.786;9.996;2023-05-07T13:29:53;3.30;;;3.10;;
12880;SDS011;6508;53.786;9.996;2023-05-07T13:32:22;3.25;;;3.15;;
12880;SDS011;6508;53.786;9.996;2023-05-07T13:34:50;3.45;;;3.25;;
12880;SDS011;6508;53.786;9.996;2023-05-07T13:37:17;3.40;;;3.20;;
12880;SDS011;6508;53.786;9.996;2023-05-07T13:39:45;3.20;;;3.10;;
12880;SDS011;6508;53.786;9.996;2023-05-07T13:42:13;2.65;;;2.60;;
12880;SDS011;6508;53.786;9.996;2023-05-07T13:44:42;3.25;;;3.15;;
12880;SDS011;6508;53.786;9.996;2023-05-07T13:47:11;3.20;;;3.00;;
12880;SDS011;6508;53.786;9.996;2023-05-07T13:49:40;2.90;;;2.80;;
12880;SDS011;6508;53.786;9.996;2023-05-07T13:52:08;3.00;;;2.90;;
12880;SDS011;6508;53.786;9.996;2023-05-07T13:54:37;3.03;;;2.92;;
12880;SDS011;6508;53.786;9.996;2023-05-07T13:57:05;3.00;;;2.90;;
12880;SDS011;6508;53.786;9.996;2023-05-07T13:59:32;3.20;;;3.10;;
12880;SDS011;6508;53.786;9.996;2023-05-07T14:02:01;2.90;;;2.80;;
12880;SDS011;6508;53.786;9.996;2023-05-07T14:04:30;3.63;;;3.42;;
12880;SDS011;6508;53.786;9.996;2023-05-07T14:06:58;3.13;;;2.97;;
12880;SDS011;6508;53.786;9.996;2023-05-07T14:09:25;3.05;;;2.92;;
12880;SDS011;6508;53.786;9.996;2023-05-07T14:11:53;3.20;;;3.10;;
12880;SDS011;6508;53.786;9.996;2023-05-07T14:14:21;2.97;;;2.78;;
12880;SDS011;6508;53.786;9.996;2023-05-07T14:16:49;3.10;;;3.00;;
12880;SDS011;6508;53.786;9.996;2023-05-07T14:19:18;3.50;;;3.20;;
12880;SDS011;6508;53.786;9.996;2023-05-07T14:21:47;3.85;;;3.55;;
12880;SDS011;6508;53.786;9.996;2023-05-07T14:24:14;3.30;;;3.20;;
12880;SDS011;6508;53.786;9.996;2023-05-07T14:27:02;3.00;;;2.90;;
12880;SDS011;6508;53.786;9.996;2023-05-07T14:29:30;3.03;;;2.90;;
12880;SDS011;6508;53.786;9.996;2023-05-07T14:31:58;3.08;;;2.88;;
12880;SDS011;6508;53.786;9.996;2023-05-07T14:34:28;3.05;;;2.95;;
12880;SDS011;6508;53.786;9.996;2023-05-07T14:36:56;2.90;;;2.75;;
12880;SDS011;6508;53.786;9.996;2023-05-07T14:39:23;2.83;;;2.72;;
12880;SDS011;6508;53.786;9.996;2023-05-07T14:41:52;3.30;;;3.10;;
12880;SDS011;6508;53.786;9.996;2023-05-07T14:44:21;2.92;;;2.83;;
12880;SDS011;6508;53.786;9.996;2023-05-07T14:46:50;3.42;;;2.92;;
12880;SDS011;6508;53.786;9.996;2023-05-07T14:49:18;2.85;;;2.75;;
12880;SDS011;6508;53.786;9.996;2023-05-07T14:51:48;3.10;;;2.90;;
12880;SDS011;6508;53.786;9.996;2023-05-07T14:54:16;3.40;;;3.20;;
12880;SDS011;6508;53.786;9.996;2023-05-07T14:56:44;2.78;;;2.67;;
12880;SDS011;6508;53.786;9.996;2023-05-07T14:59:12;2.90;;;2.80;;
12880;SDS011;6508;53.786;9.996;2023-05-07T15:01:42;2.67;;;2.58;;
12880;SDS011;6508;53.786;9.996;2023-05-07T15:04:12;2.97;;;2.78;;
12880;SDS011;6508;53.786;9.996;2023-05-07T15:06:41;2.70;;;2.60;;
12880;SDS011;6508;53.786;9.996;2023-05-07T15:09:10;3.42;;;2.95;;
12880;SDS011;6508;53.786;9.996;2023-05-07T15:11:38;2.78;;;2.67;;
12880;SDS011;6508;53.786;9.996;2023-05-07T15:14:06;3.28;;;3.03;;
12880;SDS011;6508;53.786;9.996;2023-05-07T15:16:34;3.15;;;2.95;;
12880;SDS011;6508;53.786;9.996;2023-05-07T15:19:03;2.80;;;2.70;;
12880;SDS011;6508;53.786;9.996;2023-05-07T15:21:31;2.70;;;2.60;;
12880;SDS011;6508;53.786;9.996;2023-05-07T15:24:01;3.08;;;2.88;;
12880;SDS011;6508;53.786;9.996;2023-05-07T15:26:30;2.90;;;2.80;;